Terminal Aerodrome Forecast
Issued by NWS

Home | Current Version | Previous Version | Graphics & Text | Print | Product List | Glossary On
Versions: 1 2 3 4 5 6 7 8 9 10 11 12 13 14 15 16 17 18 19 20 21 22 23 24 25 26 27 28 29 30 31 32 33 34 35 36
000
FTUS43 KLOT 302200 AAB
TAFDPA
TAF AMD
KDPA 302200Z 3022/0118 04008KT P6SM BKN020
     FM010000 07006KT P6SM BKN020
     FM010700 14006KT P6SM BKN015
     FM011600 13008KT P6SM SCT025 BKN250=

USA.gov is the U.S. government's official web portal to all federal, state and local government web resources and services.